Time;durP1;ratioP1;P1;durP2;ratioP2;P2;SDS_P1;SDS_P2;PMS_P1;PMS_P2;Temp;Humidity;BMP_temperature;BMP_pressure;BME280_temperature;BME280_humidity;BME280_pressure;Samples;Min_cycle;Max_cycle;Signal;HPM_P1;HPM_P2
2023/12/16 00:00:35;;;;;;;25.52;7.25;;;;;;;6.36;100.00;103097.19;6052624;28;20034;-72
2023/12/16 00:03:30;;;;;;;22.43;7.17;;;;;;;6.40;100.00;103082.13;6051408;28;20033;-74
2023/12/16 00:06:25;;;;;;;23.30;7.47;;;;;;;6.35;100.00;103073.56;6052104;28;20037;-73
2023/12/16 00:09:21;;;;;;;24.57;7.53;;;;;;;6.37;100.00;103082.25;6051685;28;20261;-72
2023/12/16 00:12:16;;;;;;;26.10;7.63;;;;;;;6.27;100.00;103068.59;6051756;28;20022;-72
2023/12/16 00:15:11;;;;;;;16.70;7.23;;;;;;;6.33;100.00;103073.59;6050329;28;20116;-72
2023/12/16 00:18:07;;;;;;;22.42;8.27;;;;;;;6.26;100.00;103071.25;6051440;28;20281;-73
2023/12/16 00:21:02;;;;;;;18.83;7.73;;;;;;;6.26;100.00;103066.00;6051460;28;20081;-74
2023/12/16 00:23:57;;;;;;;21.33;7.28;;;;;;;6.27;100.00;103079.13;6050964;28;20058;-72
2023/12/16 00:26:53;;;;;;;20.00;6.87;;;;;;;6.27;100.00;103080.91;6051551;28;20084;-72
2023/12/16 00:29:49;;;;;;;24.60;7.72;;;;;;;6.27;100.00;103086.16;6052836;28;20103;-72
2023/12/16 00:32:44;;;;;;;19.48;6.28;;;;;;;6.23;100.00;103089.81;6050478;28;20398;-72
2023/12/16 00:35:39;;;;;;;17.90;7.33;;;;;;;6.21;100.00;103100.44;6051501;28;20030;-72
2023/12/16 00:38:35;;;;;;;20.02;6.90;;;;;;;6.16;100.00;103091.00;6051054;28;20060;-72
2023/12/16 00:41:30;;;;;;;21.23;7.00;;;;;;;6.16;100.00;103085.72;6061773;28;20033;-72
2023/12/16 00:44:25;;;;;;;20.90;6.73;;;;;;;6.12;100.00;103084.09;6050160;28;20424;-73
2023/12/16 00:47:21;;;;;;;25.20;6.67;;;;;;;6.20;100.00;103084.66;6048004;28;20291;-73
2023/12/16 00:50:16;;;;;;;21.42;6.50;;;;;;;6.28;100.00;103087.84;6051250;28;20763;-73
2023/12/16 00:53:12;;;;;;;21.33;6.03;;;;;;;6.29;100.00;103090.47;6048743;28;20021;-73
2023/12/16 00:56:08;;;;;;;17.92;6.13;;;;;;;6.28;100.00;103101.91;6045656;28;21075;-73
2023/12/16 00:59:03;;;;;;;19.75;6.22;;;;;;;6.22;100.00;103090.75;6047847;28;20044;-73
2023/12/16 01:01:59;;;;;;;16.95;6.15;;;;;;;6.17;100.00;103084.81;6046752;28;20038;-72
2023/12/16 01:04:55;;;;;;;16.27;5.43;;;;;;;6.22;100.00;103082.84;6047446;28;20030;-73
2023/12/16 01:07:51;;;;;;;16.83;6.53;;;;;;;6.21;100.00;103070.59;6048191;28;20137;-73
2023/12/16 01:10:46;;;;;;;23.43;6.53;;;;;;;6.15;100.00;103070.81;6048966;28;20042;-73
2023/12/16 01:13:41;;;;;;;22.33;6.20;;;;;;;6.22;100.00;103085.50;6049661;28;20053;-73
2023/12/16 01:16:36;;;;;;;18.40;6.50;;;;;;;6.19;100.00;103085.59;6049563;28;20440;-73
2023/12/16 01:19:32;;;;;;;16.60;7.10;;;;;;;6.13;100.00;103080.56;6051237;28;20093;-73
2023/12/16 01:22:27;;;;;;;19.00;6.23;;;;;;;6.05;100.00;103080.88;6050086;28;20111;-73
2023/12/16 01:25:22;;;;;;;22.13;6.37;;;;;;;6.03;100.00;103085.34;6050398;28;20022;-72
2023/12/16 01:28:18;;;;;;;22.07;6.37;;;;;;;5.99;100.00;103081.09;6051016;28;20092;-73
2023/12/16 01:31:13;;;;;;;21.40;7.17;;;;;;;6.05;100.00;103098.44;6054110;28;20059;-72
2023/12/16 01:34:08;;;;;;;18.33;6.90;;;;;;;5.96;100.00;103078.56;6049244;28;20392;-73
2023/12/16 01:37:04;;;;;;;22.87;7.07;;;;;;;5.88;100.00;103088.53;6049396;28;20105;-73
2023/12/16 01:40:00;;;;;;;15.98;6.30;;;;;;;5.82;100.00;103089.59;6053402;28;20124;-72
2023/12/16 01:42:55;;;;;;;19.27;6.60;;;;;;;5.78;100.00;103095.03;6048862;28;20075;-72
2023/12/16 01:45:58;;;;;;;25.40;7.30;;;;;;;5.68;100.00;103093.66;6049525;28;20473;-73
2023/12/16 01:48:53;;;;;;;18.38;6.05;;;;;;;5.71;100.00;103089.13;6050012;28;20033;-72
2023/12/16 01:51:49;;;;;;;22.57;6.03;;;;;;;5.62;100.00;103073.69;6042676;28;20068;-72
2023/12/16 01:54:44;;;;;;;17.27;6.32;;;;;;;5.65;100.00;103099.91;6047779;28;20316;-73
2023/12/16 01:57:40;;;;;;;16.85;6.00;;;;;;;5.63;100.00;103093.81;6071417;28;20037;-72
2023/12/16 02:00:37;;;;;;;20.63;5.93;;;;;;;5.73;100.00;103103.13;6048345;28;20389;-73
2023/12/16 02:03:32;;;;;;;17.48;6.68;;;;;;;5.75;100.00;103090.75;6055307;28;20032;-73
2023/12/16 02:06:28;;;;;;;18.35;6.57;;;;;;;5.77;100.00;103083.66;6048283;28;20037;-73
2023/12/16 02:09:23;;;;;;;21.67;6.63;;;;;;;5.85;100.00;103083.38;6049581;28;20056;-73
2023/12/16 02:12:19;;;;;;;27.02;6.50;;;;;;;5.85;100.00;103092.16;6049011;28;20014;-73
2023/12/16 02:15:14;;;;;;;26.85;6.85;;;;;;;5.85;100.00;103094.78;6048788;28;20033;-73
2023/12/16 02:18:11;;;;;;;16.83;6.43;;;;;;;5.86;100.00;103083.34;6049537;28;20028;-72
2023/12/16 02:21:06;;;;;;;16.08;6.63;;;;;;;5.85;100.00;103088.66;6049388;28;20347;-73
2023/12/16 02:24:02;;;;;;;22.63;7.30;;;;;;;5.91;100.00;103085.78;6063731;28;20026;-72
2023/12/16 02:26:57;;;;;;;20.20;6.27;;;;;;;5.96;100.00;103097.88;6049223;28;20037;-73
2023/12/16 02:29:53;;;;;;;18.20;5.27;;;;;;;6.01;100.00;103092.44;6048880;28;20034;-73
2023/12/16 02:32:48;;;;;;;18.67;6.15;;;;;;;6.03;100.00;103090.63;6050987;28;20030;-72
2023/12/16 02:35:43;;;;;;;16.40;5.33;;;;;;;6.04;100.00;103088.81;6047160;28;20034;-73
2023/12/16 02:38:39;;;;;;;19.77;5.87;;;;;;;6.07;100.00;103086.06;6048159;28;20025;-74
2023/12/16 02:41:34;;;;;;;17.48;6.07;;;;;;;6.07;100.00;103086.94;6046551;28;20026;-71
2023/12/16 02:44:29;;;;;;;17.87;4.93;;;;;;;6.10;100.00;103088.59;6047333;28;20401;-74
2023/12/16 02:47:25;;;;;;;27.92;5.57;;;;;;;6.06;100.00;103100.16;6047503;28;20038;-73
2023/12/16 02:50:20;;;;;;;20.40;5.40;;;;;;;6.16;100.00;103102.41;6048776;28;20061;-72
2023/12/16 02:53:15;;;;;;;12.40;4.13;;;;;;;6.18;100.00;103100.53;6048212;28;20308;-72
2023/12/16 02:56:11;;;;;;;17.70;4.83;;;;;;;6.16;100.00;103097.13;6047742;28;20096;-72
2023/12/16 02:59:06;;;;;;;17.07;5.13;;;;;;;6.10;100.00;103084.19;6048487;28;20374;-72
2023/12/16 03:02:01;;;;;;;14.30;4.77;;;;;;;6.16;100.00;103101.53;6041730;28;20296;-73
2023/12/16 03:04:57;;;;;;;14.60;3.97;;;;;;;6.14;100.00;103098.09;6037889;28;20433;-73
2023/12/16 03:07:52;;;;;;;17.70;4.60;;;;;;;6.18;100.00;103104.94;6039643;28;20564;-73
2023/12/16 03:10:47;;;;;;;18.00;5.17;;;;;;;6.16;100.00;103109.44;6039512;28;20536;-72
2023/12/16 03:13:43;;;;;;;19.30;5.10;;;;;;;6.13;100.00;103099.00;6040973;28;20037;-72
2023/12/16 03:16:38;;;;;;;20.23;5.57;;;;;;;6.13;100.00;103101.63;6038080;28;20477;-72
2023/12/16 03:19:33;;;;;;;17.63;4.50;;;;;;;6.09;100.00;103100.88;6048527;28;20018;-73
2023/12/16 03:22:29;;;;;;;9.37;3.90;;;;;;;6.14;100.00;103098.97;6047044;28;20480;-72
2023/12/16 03:25:24;;;;;;;12.52;4.90;;;;;;;6.15;100.00;103099.78;6048123;28;20050;-73
2023/12/16 03:28:19;;;;;;;12.87;4.30;;;;;;;6.13;100.00;103091.09;6048451;28;20037;-72
2023/12/16 03:31:15;;;;;;;11.77;3.77;;;;;;;6.07;100.00;103080.78;6046427;28;20279;-73
2023/12/16 03:34:10;;;;;;;12.65;3.97;;;;;;;6.10;100.00;103096.50;6046434;28;20037;-72
2023/12/16 03:37:05;;;;;;;15.97;5.27;;;;;;;6.13;100.00;103093.75;6048108;28;20084;-72
2023/12/16 03:40:01;;;;;;;15.30;4.27;;;;;;;6.08;100.00;103095.69;6045361;28;20389;-72
2023/12/16 03:42:56;;;;;;;11.82;4.07;;;;;;;6.11;100.00;103092.94;6052939;28;20485;-73
2023/12/16 03:45:52;;;;;;;13.43;4.57;;;;;;;6.10;100.00;103085.94;6050144;28;20064;-73
2023/12/16 03:48:47;;;;;;;16.27;3.87;;;;;;;6.13;100.00;103097.25;6047391;28;20041;-72
2023/12/16 03:51:42;;;;;;;15.47;3.73;;;;;;;6.06;100.00;103087.00;6042792;28;20041;-72
2023/12/16 03:54:38;;;;;;;18.07;3.33;;;;;;;6.06;100.00;103092.28;6046621;28;20436;-73
2023/12/16 03:57:33;;;;;;;11.43;3.75;;;;;;;6.06;100.00;103094.91;6046946;28;20324;-72
2023/12/16 04:00:29;;;;;;;11.63;4.13;;;;;;;6.06;100.00;103095.72;6048255;28;20581;-73
2023/12/16 04:03:24;;;;;;;16.37;3.87;;;;;;;6.15;100.00;103108.56;6045864;28;20038;-73
2023/12/16 04:06:19;;;;;;;8.87;3.33;;;;;;;6.17;100.00;103112.00;6048859;28;20391;-73
2023/12/16 04:09:14;;;;;;;9.17;3.07;;;;;;;6.14;100.00;103101.59;6052618;28;20029;-73
2023/12/16 04:12:10;;;;;;;12.27;3.97;;;;;;;6.13;100.00;103096.38;6052106;28;20040;-72
2023/12/16 04:15:06;;;;;;;12.05;3.80;;;;;;;6.12;100.00;103099.91;6053081;28;20030;-72
2023/12/16 04:18:01;;;;;;;10.52;3.08;;;;;;;6.07;100.00;103091.34;6051982;28;20487;-73
2023/12/16 04:20:57;;;;;;;7.90;3.10;;;;;;;6.08;100.00;103088.66;6052027;28;20079;-72
2023/12/16 04:23:53;;;;;;;11.20;3.67;;;;;;;6.09;100.00;103100.06;6048261;28;20463;-72
2023/12/16 04:26:48;;;;;;;8.03;2.83;;;;;;;6.15;100.00;103105.06;6050782;28;20056;-72
2023/12/16 04:29:43;;;;;;;6.90;2.40;;;;;;;6.18;100.00;103104.94;6051411;28;20045;-73
2023/12/16 04:32:39;;;;;;;9.77;2.80;;;;;;;6.20;100.00;103103.09;6049742;28;20041;-72
2023/12/16 04:35:34;;;;;;;10.32;2.50;;;;;;;6.20;100.00;103113.66;6051033;28;20117;-73
2023/12/16 04:38:29;;;;;;;11.40;2.57;;;;;;;6.12;100.00;103092.88;6050478;28;20436;-72
2023/12/16 04:41:25;;;;;;;9.03;2.60;;;;;;;6.14;100.00;103096.34;6050482;28;20073;-74
2023/12/16 04:44:20;;;;;;;7.10;2.83;;;;;;;6.09;100.00;103094.78;6050899;28;20021;-72
2023/12/16 04:47:16;;;;;;;9.83;2.93;;;;;;;6.11;100.00;103108.75;6051070;28;20045;-72
2023/12/16 04:50:11;;;;;;;13.40;2.92;;;;;;;6.09;100.00;103102.69;6051597;28;20052;-72
2023/12/16 04:53:07;;;;;;;6.27;2.50;;;;;;;6.09;100.00;103116.69;6049573;28;20041;-72
2023/12/16 04:56:02;;;;;;;9.88;2.60;;;;;;;6.04;100.00;103125.69;6050514;28;20065;-72
2023/12/16 04:58:58;;;;;;;7.78;2.75;;;;;;;6.07;100.00;103122.94;6051127;28;20040;-72
2023/12/16 05:01:53;;;;;;;10.23;2.50;;;;;;;6.07;100.00;103141.38;6050730;28;20056;-72
2023/12/16 05:04:48;;;;;;;8.50;2.43;;;;;;;6.09;100.00;103139.56;6050818;28;20105;-73
2023/12/16 05:07:43;;;;;;;8.53;3.73;;;;;;;6.14;100.00;103150.78;6050167;28;20034;-72
2023/12/16 05:10:39;;;;;;;12.93;3.93;;;;;;;6.09;100.00;103145.66;6050887;28;20477;-72
2023/12/16 05:13:34;;;;;;;8.17;2.03;;;;;;;6.11;100.00;103162.28;6045592;28;20411;-72
2023/12/16 05:16:29;;;;;;;8.43;2.70;;;;;;;6.12;100.00;103156.09;6049651;28;20109;-73
2023/12/16 05:19:25;;;;;;;8.43;2.63;;;;;;;6.07;100.00;103150.13;6050978;28;20030;-73
2023/12/16 05:22:20;;;;;;;11.00;2.70;;;;;;;6.07;100.00;103162.44;6049325;28;20295;-73
2023/12/16 05:25:15;;;;;;;8.03;2.13;;;;;;;6.13;100.00;103159.59;6049889;28;20030;-73
2023/12/16 05:28:11;;;;;;;10.60;2.87;;;;;;;6.08;100.00;103156.28;6050451;28;20046;-73
2023/12/16 05:31:06;;;;;;;9.63;2.60;;;;;;;6.19;100.00;103169.91;6050209;28;20268;-72
2023/12/16 05:34:01;;;;;;;8.90;2.03;;;;;;;6.14;100.00;103156.06;6049904;28;20030;-73
2023/12/16 05:36:56;;;;;;;7.57;2.60;;;;;;;6.16;100.00;103160.34;6049715;28;20037;-72
2023/12/16 05:39:52;;;;;;;12.13;2.33;;;;;;;6.16;100.00;103167.38;6050391;28;20037;-72
2023/12/16 05:42:47;;;;;;;11.47;2.23;;;;;;;6.13;100.00;103165.72;6075708;28;20117;-72
2023/12/16 05:45:43;;;;;;;8.35;2.35;;;;;;;6.15;100.00;103163.00;6049833;28;20269;-72
2023/12/16 05:48:38;;;;;;;12.17;2.83;;;;;;;6.14;100.00;103153.41;6049912;28;20038;-72
2023/12/16 05:51:40;;;;;;;12.37;3.07;;;;;;;6.12;100.00;103155.22;6038647;28;20037;-73
2023/12/16 05:54:35;;;;;;;8.25;2.70;;;;;;;6.14;100.00;103162.19;6048073;28;20108;-72
2023/12/16 05:57:31;;;;;;;13.07;2.97;;;;;;;6.13;100.00;103172.75;6049383;28;20029;-73
2023/12/16 06:00:27;;;;;;;7.30;2.70;;;;;;;6.12;100.00;103171.03;6049828;28;20022;-73
2023/12/16 06:03:22;;;;;;;8.40;2.45;;;;;;;6.12;100.00;103182.44;6047368;28;20072;-73
2023/12/16 06:06:18;;;;;;;10.07;2.58;;;;;;;6.09;100.00;103164.09;6049153;28;20042;-73
2023/12/16 06:09:13;;;;;;;10.05;2.83;;;;;;;6.05;100.00;103165.16;6049762;28;20473;-73
2023/12/16 06:12:08;;;;;;;9.65;2.63;;;;;;;6.04;100.00;103166.06;6048923;28;20037;-73
2023/12/16 06:15:05;;;;;;;14.20;2.60;;;;;;;6.06;100.00;103179.19;6049471;28;20108;-73
2023/12/16 06:18:03;;;;;;;7.10;2.30;;;;;;;6.07;100.00;103173.84;6047237;28;20057;-73
2023/12/16 06:20:59;;;;;;;8.93;3.00;;;;;;;6.05;100.00;103159.88;6045097;28;20034;-73
2023/12/16 06:23:54;;;;;;;11.90;2.60;;;;;;;6.01;100.00;103154.78;6049269;28;20054;-73
2023/12/16 06:26:51;;;;;;;7.17;2.73;;;;;;;6.12;100.00;103171.91;6048830;28;20859;-73
2023/12/16 06:29:46;;;;;;;11.07;3.47;;;;;;;6.08;100.00;103180.84;6048880;28;20334;-73
2023/12/16 06:32:41;;;;;;;13.40;2.97;;;;;;;6.10;100.00;103186.91;6047309;28;20038;-73
2023/12/16 06:35:37;;;;;;;11.07;3.50;;;;;;;6.13;100.00;103189.44;6048264;28;20382;-72
2023/12/16 06:38:32;;;;;;;11.13;2.90;;;;;;;6.09;100.00;103176.44;6046116;28;20460;-73
2023/12/16 06:41:30;;;;;;;18.05;3.03;;;;;;;6.13;100.00;103188.56;6048490;28;20018;-73
2023/12/16 06:44:25;;;;;;;10.23;3.28;;;;;;;6.09;100.00;103189.59;6052479;28;20034;-73
2023/12/16 06:47:20;;;;;;;10.23;2.53;;;;;;;6.09;100.00;103194.88;6058837;28;20115;-72
2023/12/16 06:50:16;;;;;;;9.67;2.97;;;;;;;6.08;100.00;103193.16;6053288;28;20045;-72
2023/12/16 06:53:11;;;;;;;11.00;2.75;;;;;;;6.15;100.00;103213.06;6046468;28;20104;-73
2023/12/16 06:56:07;;;;;;;11.95;3.22;;;;;;;6.13;100.00;103212.28;6053911;28;20044;-73
2023/12/16 06:59:03;;;;;;;9.52;3.25;;;;;;;6.15;100.00;103205.16;6052364;28;20034;-73
2023/12/16 07:01:58;;;;;;;12.63;3.15;;;;;;;6.11;100.00;103193.03;6052048;28;20052;-73
2023/12/16 07:04:54;;;;;;;10.03;3.50;;;;;;;6.14;100.00;103203.47;6047625;28;20041;-73
2023/12/16 07:07:50;;;;;;;12.45;3.15;;;;;;;6.11;100.00;103187.78;6048338;28;20123;-72
2023/12/16 07:10:45;;;;;;;13.87;3.07;;;;;;;6.12;100.00;103185.06;6047977;28;20029;-73
2023/12/16 07:13:41;;;;;;;17.20;3.30;;;;;;;6.13;100.00;103188.56;6049051;28;20038;-72
2023/12/16 07:16:36;;;;;;;14.10;3.17;;;;;;;6.19;100.00;103190.97;6045993;28;20073;-72
2023/12/16 07:19:31;;;;;;;11.50;3.50;;;;;;;6.18;100.00;103189.25;6047873;28;20284;-73
2023/12/16 07:22:29;;;;;;;13.15;3.65;;;;;;;6.25;100.00;103198.66;6047025;28;20034;-75
2023/12/16 07:25:25;;;;;;;12.73;3.65;;;;;;;6.31;100.00;103188.72;6043102;28;20030;-73
2023/12/16 07:28:21;;;;;;;6.90;2.63;;;;;;;6.27;100.00;103189.78;6047218;28;20053;-72
2023/12/16 07:31:16;;;;;;;14.45;3.15;;;;;;;6.26;100.00;103190.69;6045270;28;20033;-73
2023/12/16 07:34:11;;;;;;;10.80;2.30;;;;;;;6.26;100.00;103187.19;6047282;28;20061;-72
2023/12/16 07:37:07;;;;;;;12.87;2.53;;;;;;;6.29;100.00;103192.34;6047406;28;20093;-72
2023/12/16 07:40:02;;;;;;;10.27;2.33;;;;;;;6.32;100.00;103194.88;6048222;28;20370;-73
2023/12/16 07:42:58;;;;;;;13.45;2.95;;;;;;;6.34;100.00;103190.41;6049719;28;20053;-71
2023/12/16 07:45:53;;;;;;;23.60;3.70;;;;;;;6.34;100.00;103185.13;6052115;28;20033;-72
2023/12/16 07:48:48;;;;;;;9.27;2.23;;;;;;;6.29;100.00;103181.81;6052461;28;20038;-73
2023/12/16 07:51:43;;;;;;;6.50;2.80;;;;;;;6.26;100.00;103182.78;6051470;28;20686;-72
2023/12/16 07:54:39;;;;;;;8.43;2.93;;;;;;;6.19;100.00;103170.78;6058413;28;20038;-72
2023/12/16 07:57:34;;;;;;;11.23;2.50;;;;;;;6.13;100.00;103172.75;6052438;28;20075;-72
2023/12/16 08:00:29;;;;;;;9.10;2.47;;;;;;;6.05;100.00;103172.19;6050667;28;20052;-72
2023/12/16 08:03:27;;;;;;;12.10;2.53;;;;;;;5.97;100.00;103162.81;6053349;28;20042;-72
2023/12/16 08:06:22;;;;;;;9.93;2.15;;;;;;;6.01;100.00;103167.97;6051457;28;20037;-72
2023/12/16 08:09:17;;;;;;;11.97;2.63;;;;;;;6.01;100.00;103162.69;6053084;28;20500;-72
2023/12/16 08:12:12;;;;;;;11.07;2.50;;;;;;;6.10;100.00;103167.59;6051668;28;20382;-73
2023/12/16 08:15:08;;;;;;;11.63;2.80;;;;;;;6.04;100.00;103171.31;6051097;28;20485;-73
2023/12/16 08:18:03;;;;;;;8.55;2.38;;;;;;;5.93;100.00;103161.19;6053592;28;20109;-73
2023/12/16 08:20:59;;;;;;;7.93;2.63;;;;;;;5.99;100.00;103174.13;6050097;28;20065;-74
2023/12/16 08:23:55;;;;;;;10.15;2.70;;;;;;;5.98;100.00;103171.53;6049562;28;20276;-72
2023/12/16 08:26:50;;;;;;;9.37;2.57;;;;;;;5.95;100.00;103177.78;6054093;28;20052;-72
2023/12/16 08:29:45;;;;;;;13.10;2.33;;;;;;;5.86;100.00;103162.34;6052687;28;20057;-72
2023/12/16 08:32:41;;;;;;;6.53;2.37;;;;;;;5.84;100.00;103155.38;6049045;28;20297;-71
2023/12/16 08:35:36;;;;;;;7.07;2.43;;;;;;;6.01;100.00;103160.06;6055328;28;20064;-72
2023/12/16 08:38:35;;;;;;;12.20;2.65;;;;;;;6.24;100.00;103174.09;6050947;28;20771;-71
2023/12/16 08:41:30;;;;;;;10.15;2.22;;;;;;;6.46;100.00;103169.72;6050643;28;20037;-71
2023/12/16 08:44:25;;;;;;;10.80;2.27;;;;;;;6.57;100.00;103171.94;6050545;28;20466;-72
2023/12/16 08:47:21;;;;;;;8.50;2.47;;;;;;;6.69;100.00;103174.06;6049916;28;20066;-72
2023/12/16 08:50:16;;;;;;;9.67;2.43;;;;;;;6.89;100.00;103183.84;6050954;28;20092;-72
2023/12/16 08:53:11;;;;;;;9.73;2.13;;;;;;;6.92;100.00;103178.44;6048455;28;20382;-72
2023/12/16 08:56:07;;;;;;;6.93;2.37;;;;;;;7.02;100.00;103190.31;6050832;28;20272;-72
2023/12/16 08:59:02;;;;;;;11.45;1.92;;;;;;;7.11;100.00;103185.56;6048891;28;20034;-73
2023/12/16 09:01:58;;;;;;;11.05;1.92;;;;;;;7.18;100.00;103179.09;6051381;28;20453;-72
2023/12/16 09:04:53;;;;;;;9.52;2.35;;;;;;;7.15;100.00;103179.22;6047032;28;20137;-72
2023/12/16 09:07:48;;;;;;;10.17;2.43;;;;;;;7.29;100.00;103183.06;6048641;28;20045;-72
2023/12/16 09:10:43;;;;;;;11.43;2.60;;;;;;;7.44;100.00;103198.25;6048225;28;20064;-72
2023/12/16 09:13:39;;;;;;;10.20;2.37;;;;;;;7.61;100.00;103186.03;6052735;28;20124;-71
2023/12/16 09:16:34;;;;;;;12.55;2.65;;;;;;;7.73;100.00;103180.25;6051892;28;20083;-72
2023/12/16 09:19:30;;;;;;;14.15;2.42;;;;;;;7.96;100.00;103181.88;6046179;28;20045;-72
2023/12/16 09:22:25;;;;;;;10.23;2.15;;;;;;;8.10;100.00;103178.63;6047473;28;20034;-72
2023/12/16 09:25:20;;;;;;;11.43;2.30;;;;;;;8.14;100.00;103175.75;6044041;28;20404;-72
2023/12/16 09:28:16;;;;;;;6.00;1.83;;;;;;;7.90;100.00;103166.28;6049670;28;20370;-72
2023/12/16 09:31:11;;;;;;;7.22;2.03;;;;;;;7.92;100.00;103153.00;6039778;28;20050;-72
2023/12/16 09:34:06;;;;;;;9.50;2.27;;;;;;;7.96;100.00;103160.75;6048177;28;20033;-72
2023/12/16 09:37:02;;;;;;;12.90;2.30;;;;;;;7.89;100.00;103161.94;6041553;28;20026;-71
2023/12/16 09:39:57;;;;;;;10.23;1.90;;;;;;;7.85;100.00;103170.06;6040167;28;20088;-71
2023/12/16 09:43:00;;;;;;;8.30;2.23;;;;;;;7.77;100.00;103160.69;6051412;28;20284;-74
2023/12/16 09:45:55;;;;;;;6.43;1.90;;;;;;;7.73;100.00;103164.41;6045616;28;20022;-72
2023/12/16 09:48:50;;;;;;;12.73;2.63;;;;;;;7.68;100.00;103166.38;6044377;28;20448;-73
2023/12/16 09:51:46;;;;;;;7.88;2.25;;;;;;;7.64;100.00;103170.06;6043150;28;20611;-72
2023/12/16 09:54:41;;;;;;;9.70;2.43;;;;;;;7.69;100.00;103181.28;6045538;28;20044;-72
2023/12/16 09:57:38;;;;;;;9.67;2.10;;;;;;;7.66;100.00;103180.59;6042959;28;20036;-73
2023/12/16 10:00:35;;;;;;;8.90;2.50;;;;;;;7.68;100.00;103176.09;6047005;28;20395;-73
2023/12/16 10:03:31;;;;;;;16.48;3.33;;;;;;;7.70;100.00;103174.22;6046044;28;20117;-72
2023/12/16 10:06:26;;;;;;;10.38;2.05;;;;;;;7.65;100.00;103178.84;6047961;28;20505;-71
2023/12/16 10:09:22;;;;;;;11.27;2.20;;;;;;;7.66;100.00;103167.38;6047697;28;20648;-72
2023/12/16 10:12:18;;;;;;;9.40;2.97;;;;;;;7.67;100.00;103158.50;6045638;28;20480;-72
2023/12/16 10:15:29;;;;;;;9.50;2.70;;;;;;;7.77;100.00;103162.50;6048148;28;20374;-72
2023/12/16 10:18:25;;;;;;;10.10;2.40;;;;;;;7.84;100.00;103166.56;6053097;28;20458;-72
2023/12/16 10:21:25;;;;;;;11.68;2.80;;;;;;;7.79;100.00;103158.00;6045832;28;20037;-72
2023/12/16 10:24:20;;;;;;;9.88;2.53;;;;;;;7.88;100.00;103152.28;6045266;28;20040;-73
2023/12/16 10:27:16;;;;;;;7.40;2.20;;;;;;;7.94;100.00;103151.16;6048192;28;20034;-72
2023/12/16 10:30:11;;;;;;;9.93;2.40;;;;;;;8.03;100.00;103151.59;6047372;28;20030;-72
2023/12/16 10:33:08;;;;;;;21.40;3.17;;;;;;;7.99;100.00;103128.03;6047051;28;20030;-73
2023/12/16 10:36:04;;;;;;;8.95;2.53;;;;;;;8.00;100.00;103130.59;6047013;28;20506;-72
2023/12/16 10:38:59;;;;;;;12.60;2.75;;;;;;;8.00;100.00;103125.31;6040910;28;20033;-73
2023/12/16 10:41:54;;;;;;;12.27;3.03;;;;;;;8.07;100.00;103124.09;6045696;28;20107;-72
2023/12/16 10:44:53;;;;;;;11.43;2.70;;;;;;;8.12;100.00;103114.19;6045507;28;20839;-71
2023/12/16 10:47:49;;;;;;;18.02;2.67;;;;;;;8.05;100.00;103104.81;6048124;28;20088;-73
2023/12/16 10:50:47;;;;;;;8.75;2.33;;;;;;;8.10;100.00;103108.09;6047327;28;20507;-71
2023/12/16 10:53:45;;;;;;;8.55;2.70;;;;;;;8.13;100.00;103107.97;6046860;28;20030;-72
2023/12/16 10:56:42;;;;;;;16.20;3.15;;;;;;;8.04;100.00;103089.91;6051254;28;20037;-73
2023/12/16 10:59:43;;;;;;;14.65;2.78;;;;;;;8.13;100.00;103094.75;6040491;28;20038;-73
2023/12/16 11:02:58;;;;;;;12.35;2.63;;;;;;;8.14;100.00;103085.91;6043142;28;20032;-72
2023/12/16 11:06:00;;;;;;;16.75;3.03;;;;;;;8.09;100.00;103063.25;6048754;28;20084;-72
2023/12/16 11:08:56;;;;;;;11.82;2.25;;;;;;;8.09;100.00;103077.34;6046525;28;20392;-72
2023/12/16 11:11:53;;;;;;;9.65;3.15;;;;;;;8.11;100.00;103072.84;6046008;28;20049;-72
2023/12/16 11:14:54;;;;;;;11.00;2.50;;;;;;;8.10;100.00;103062.34;6045195;28;20042;-72
2023/12/16 11:17:57;;;;;;;10.70;3.38;;;;;;;8.13;100.00;103064.81;6052933;28;20044;-72
2023/12/16 11:20:56;;;;;;;8.63;2.90;;;;;;;8.09;100.00;103060.63;6049633;28;20034;-73
2023/12/16 11:23:51;;;;;;;12.27;2.88;;;;;;;8.06;100.00;103037.84;6050071;28;20370;-73
2023/12/16 11:26:52;;;;;;;15.60;2.80;;;;;;;7.97;100.00;103040.03;6054540;28;20029;-74
2023/12/16 11:29:47;;;;;;;11.25;2.53;;;;;;;7.97;100.00;103035.63;6052482;28;20389;-73
2023/12/16 11:32:45;;;;;;;9.50;3.30;;;;;;;8.01;100.00;103036.34;6049413;28;20033;-73
2023/12/16 11:35:45;;;;;;;6.03;2.30;;;;;;;8.02;100.00;103030.13;6049336;28;20351;-72
2023/12/16 11:38:43;;;;;;;9.05;2.40;;;;;;;8.09;100.00;103039.47;6067011;28;20559;-72
2023/12/16 11:41:39;;;;;;;11.15;2.15;;;;;;;8.17;100.00;103048.75;6049936;28;20045;-72
2023/12/16 11:44:50;;;;;;;21.23;2.72;;;;;;;8.17;100.00;103027.63;6050850;28;20030;-72
2023/12/16 11:47:48;;;;;;;7.78;2.20;;;;;;;8.14;100.00;103009.28;6047556;28;20043;-73
2023/12/16 11:50:45;;;;;;;16.00;2.67;;;;;;;8.28;100.00;103020.06;6081412;28;20030;-73
2023/12/16 11:53:41;;;;;;;11.63;2.55;;;;;;;8.30;100.00;103002.34;6050304;28;20048;-72
2023/12/16 11:56:36;;;;;;;8.07;1.80;;;;;;;8.49;100.00;103018.16;6066362;28;20400;-72
2023/12/16 11:59:32;;;;;;;8.07;2.20;;;;;;;8.36;100.00;102982.69;6056215;28;20040;-73
2023/12/16 12:02:27;;;;;;;10.27;2.00;;;;;;;8.44;100.00;102979.66;6049271;28;20285;-72
2023/12/16 12:05:23;;;;;;;11.50;2.23;;;;;;;8.54;100.00;102983.53;6066240;28;20033;-72
2023/12/16 12:08:19;;;;;;;11.48;2.60;;;;;;;8.57;100.00;102978.09;6049008;28;20125;-73
2023/12/16 12:11:20;;;;;;;8.20;2.22;;;;;;;8.60;100.00;102972.66;6050517;28;20073;-72
2023/12/16 12:14:15;;;;;;;8.88;2.05;;;;;;;8.63;100.00;102968.06;6047951;28;20116;-73
2023/12/16 12:17:10;;;;;;;11.13;2.67;;;;;;;8.74;100.00;102972.81;6043076;28;20045;-72
2023/12/16 12:20:07;;;;;;;10.90;1.93;;;;;;;8.70;100.00;102963.31;6051342;28;20385;-72
2023/12/16 12:23:02;;;;;;;14.15;2.65;;;;;;;8.89;100.00;102959.63;6051156;28;20054;-73
2023/12/16 12:25:57;;;;;;;12.37;2.90;;;;;;;8.85;100.00;102963.41;6050424;28;20040;-73
2023/12/16 12:29:01;;;;;;;9.63;2.30;;;;;;;8.86;100.00;102953.63;6048154;28;20026;-73
2023/12/16 12:32:00;;;;;;;13.13;2.50;;;;;;;8.81;100.00;102939.81;6048214;28;20040;-72
2023/12/16 12:34:59;;;;;;;8.57;2.08;;;;;;;8.85;100.00;102947.53;6047887;28;20042;-73
2023/12/16 12:37:56;;;;;;;11.02;2.10;;;;;;;8.75;100.00;102953.38;6048116;28;20022;-73
2023/12/16 12:41:03;;;;;;;11.05;2.40;;;;;;;8.72;100.00;102951.75;6050522;28;20053;-72
2023/12/16 12:43:58;;;;;;;10.10;1.65;;;;;;;8.71;100.00;102943.88;6047356;28;20071;-73
2023/12/16 12:46:53;;;;;;;9.60;2.33;;;;;;;8.68;100.00;102938.72;6047375;28;20029;-73
2023/12/16 12:49:49;;;;;;;10.90;2.63;;;;;;;8.66;100.00;102930.03;6048829;28;20030;-72
2023/12/16 12:52:44;;;;;;;10.35;1.98;;;;;;;8.67;100.00;102934.41;6050596;28;20042;-73
2023/12/16 12:55:43;;;;;;;10.63;2.13;;;;;;;8.63;100.00;102919.59;6043838;28;20038;-73
2023/12/16 12:58:38;;;;;;;14.20;2.10;;;;;;;8.71;100.00;102933.28;6043640;28;20048;-73
2023/12/16 13:01:33;;;;;;;8.53;1.70;;;;;;;8.64;100.00;102921.31;6045514;28;20053;-73
2023/12/16 13:04:29;;;;;;;11.03;2.40;;;;;;;8.63;100.00;102924.91;6046457;28;20642;-72
2023/12/16 13:07:24;;;;;;;7.17;2.10;;;;;;;8.67;100.00;102926.47;6052548;28;20492;-73
2023/12/16 13:10:19;;;;;;;10.73;2.20;;;;;;;8.61;100.00;102911.75;6042768;28;20030;-72
2023/12/16 13:13:16;;;;;;;14.43;2.47;;;;;;;8.58;100.00;102909.28;6048278;28;20160;-72
2023/12/16 13:16:13;;;;;;;9.98;2.97;;;;;;;8.56;100.00;102919.06;6048295;28;20353;-72
2023/12/16 13:19:08;;;;;;;12.80;2.40;;;;;;;8.53;100.00;102921.03;6053138;28;20022;-73
2023/12/16 13:22:04;;;;;;;8.83;2.20;;;;;;;8.54;100.00;102914.78;6041400;28;20452;-72
2023/12/16 13:24:59;;;;;;;13.90;2.10;;;;;;;8.54;100.00;102920.94;6050542;28;20033;-72
2023/12/16 13:27:57;;;;;;;9.15;2.25;;;;;;;8.55;100.00;102919.16;6046718;28;20030;-72
2023/12/16 13:30:53;;;;;;;11.02;2.05;;;;;;;8.53;100.00;102915.72;6046302;28;20397;-73